sensor_id;sensor_type;location;lat;lon;timestamp;temperature;humidity
26803;DHT22;14378;51.796;5.808;2023-07-30T00:01:07;16.10;99.90
26803;DHT22;14378;51.796;5.808;2023-07-30T00:03:08;16.10;99.90
26803;DHT22;14378;51.796;5.808;2023-07-30T00:05:09;16.10;99.90
26803;DHT22;14378;51.796;5.808;2023-07-30T00:07:09;16.10;99.90
26803;DHT22;14378;51.796;5.808;2023-07-30T00:09:11;16.00;99.90
26803;DHT22;14378;51.796;5.808;2023-07-30T00:11:12;16.00;99.90
26803;DHT22;14378;51.796;5.808;2023-07-30T00:13:13;16.00;99.90
26803;DHT22;14378;51.796;5.808;2023-07-30T00:15:15;16.00;99.90
26803;DHT22;14378;51.796;5.808;2023-07-30T00:17:16;16.00;99.90
26803;DHT22;14378;51.796;5.808;2023-07-30T00:19:17;16.00;99.90
26803;DHT22;14378;51.796;5.808;2023-07-30T00:21:17;16.00;99.90
26803;DHT22;14378;51.796;5.808;2023-07-30T00:23:18;16.00;99.90
26803;DHT22;14378;51.796;5.808;2023-07-30T00:25:19;15.90;99.90
26803;DHT22;14378;51.796;5.808;2023-07-30T00:27:20;15.90;99.90
26803;DHT22;14378;51.796;5.808;2023-07-30T00:29:21;15.90;99.90
26803;DHT22;14378;51.796;5.808;2023-07-30T00:31:22;15.90;99.90
26803;DHT22;14378;51.796;5.808;2023-07-30T00:33:24;15.80;99.90
26803;DHT22;14378;51.796;5.808;2023-07-30T00:35:25;15.80;99.90
26803;DHT22;14378;51.796;5.808;2023-07-30T00:37:26;15.80;99.90
26803;DHT22;14378;51.796;5.808;2023-07-30T00:39:27;15.70;99.90
26803;DHT22;14378;51.796;5.808;2023-07-30T00:41:28;15.70;99.90
26803;DHT22;14378;51.796;5.808;2023-07-30T00:43:29;15.70;99.90
26803;DHT22;14378;51.796;5.808;2023-07-30T00:45:29;15.60;99.90
26803;DHT22;14378;51.796;5.808;2023-07-30T00:47:31;15.60;99.90
26803;DHT22;14378;51.796;5.808;2023-07-30T00:49:32;15.60;99.90
26803;DHT22;14378;51.796;5.808;2023-07-30T00:51:34;15.60;99.90
26803;DHT22;14378;51.796;5.808;2023-07-30T00:53:34;15.60;99.90
26803;DHT22;14378;51.796;5.808;2023-07-30T00:55:37;15.60;99.90
26803;DHT22;14378;51.796;5.808;2023-07-30T00:57:38;15.60;99.90
26803;DHT22;14378;51.796;5.808;2023-07-30T00:59:40;15.50;99.90
26803;DHT22;14378;51.796;5.808;2023-07-30T01:01:41;15.60;99.90
26803;DHT22;14378;51.796;5.808;2023-07-30T01:03:43;15.50;99.90
26803;DHT22;14378;51.796;5.808;2023-07-30T01:05:45;15.50;99.90
26803;DHT22;14378;51.796;5.808;2023-07-30T01:07:46;15.50;99.90
26803;DHT22;14378;51.796;5.808;2023-07-30T01:09:48;15.50;99.90
26803;DHT22;14378;51.796;5.808;2023-07-30T01:11:49;15.40;99.90
26803;DHT22;14378;51.796;5.808;2023-07-30T01:13:50;15.40;99.90
26803;DHT22;14378;51.796;5.808;2023-07-30T01:15:51;15.40;99.90
26803;DHT22;14378;51.796;5.808;2023-07-30T01:17:52;15.40;99.90
26803;DHT22;14378;51.796;5.808;2023-07-30T01:19:54;15.40;99.90
26803;DHT22;14378;51.796;5.808;2023-07-30T01:21:58;15.40;99.90
26803;DHT22;14378;51.796;5.808;2023-07-30T01:23:59;15.40;99.90
26803;DHT22;14378;51.796;5.808;2023-07-30T01:26:17;15.40;99.90
26803;DHT22;14378;51.796;5.808;2023-07-30T01:28:23;15.30;99.90
26803;DHT22;14378;51.796;5.808;2023-07-30T01:30:43;15.30;99.90
26803;DHT22;14378;51.796;5.808;2023-07-30T01:32:49;15.30;99.90
26803;DHT22;14378;51.796;5.808;2023-07-30T01:34:57;15.30;99.90
26803;DHT22;14378;51.796;5.808;2023-07-30T01:36:58;15.30;99.90
26803;DHT22;14378;51.796;5.808;2023-07-30T01:38:59;15.20;99.90
26803;DHT22;14378;51.796;5.808;2023-07-30T01:41:00;15.20;99.90
26803;DHT22;14378;51.796;5.808;2023-07-30T01:43:02;15.10;99.90
26803;DHT22;14378;51.796;5.808;2023-07-30T01:45:04;15.10;99.90
26803;DHT22;14378;51.796;5.808;2023-07-30T01:47:05;15.10;99.90
26803;DHT22;14378;51.796;5.808;2023-07-30T01:49:06;15.10;99.90
26803;DHT22;14378;51.796;5.808;2023-07-30T01:51:07;15.00;99.90
26803;DHT22;14378;51.796;5.808;2023-07-30T01:53:07;15.00;99.90
26803;DHT22;14378;51.796;5.808;2023-07-30T01:55:09;15.00;99.90
26803;DHT22;14378;51.796;5.808;2023-07-30T01:57:10;15.00;99.90
26803;DHT22;14378;51.796;5.808;2023-07-30T01:59:14;15.00;99.90
26803;DHT22;14378;51.796;5.808;2023-07-30T02:01:16;15.00;99.90
26803;DHT22;14378;51.796;5.808;2023-07-30T02:03:16;15.00;99.90
26803;DHT22;14378;51.796;5.808;2023-07-30T02:05:17;15.00;99.90
26803;DHT22;14378;51.796;5.808;2023-07-30T02:07:19;15.00;99.90
26803;DHT22;14378;51.796;5.808;2023-07-30T02:09:20;15.00;99.90
26803;DHT22;14378;51.796;5.808;2023-07-30T02:11:22;15.00;99.90
26803;DHT22;14378;51.796;5.808;2023-07-30T02:13:23;15.00;99.90
26803;DHT22;14378;51.796;5.808;2023-07-30T02:15:24;15.00;99.90
26803;DHT22;14378;51.796;5.808;2023-07-30T02:17:25;15.00;99.90
26803;DHT22;14378;51.796;5.808;2023-07-30T02:19:26;15.00;99.90
26803;DHT22;14378;51.796;5.808;2023-07-30T02:21:27;15.00;99.90
26803;DHT22;14378;51.796;5.808;2023-07-30T02:23:29;15.00;99.90
26803;DHT22;14378;51.796;5.808;2023-07-30T02:25:30;15.00;99.90
26803;DHT22;14378;51.796;5.808;2023-07-30T02:27:31;15.00;99.90
26803;DHT22;14378;51.796;5.808;2023-07-30T02:29:32;15.00;99.90
26803;DHT22;14378;51.796;5.808;2023-07-30T02:31:33;15.00;99.90
26803;DHT22;14378;51.796;5.808;2023-07-30T02:33:33;15.00;99.90
26803;DHT22;14378;51.796;5.808;2023-07-30T02:35:34;15.00;99.90
26803;DHT22;14378;51.796;5.808;2023-07-30T02:37:35;15.10;99.90
26803;DHT22;14378;51.796;5.808;2023-07-30T02:39:36;15.10;99.90
26803;DHT22;14378;51.796;5.808;2023-07-30T02:41:37;15.10;99.90
26803;DHT22;14378;51.796;5.808;2023-07-30T02:43:38;15.10;99.90
26803;DHT22;14378;51.796;5.808;2023-07-30T02:45:39;15.10;99.90
26803;DHT22;14378;51.796;5.808;2023-07-30T02:47:39;15.10;99.90
26803;DHT22;14378;51.796;5.808;2023-07-30T02:49:40;15.10;99.90
26803;DHT22;14378;51.796;5.808;2023-07-30T02:51:41;15.10;99.90
26803;DHT22;14378;51.796;5.808;2023-07-30T02:53:51;15.20;99.90
26803;DHT22;14378;51.796;5.808;2023-07-30T02:55:53;15.20;99.90
26803;DHT22;14378;51.796;5.808;2023-07-30T02:57:54;15.20;99.90
26803;DHT22;14378;51.796;5.808;2023-07-30T02:59:54;15.20;99.90
26803;DHT22;14378;51.796;5.808;2023-07-30T03:01:55;15.20;99.90
26803;DHT22;14378;51.796;5.808;2023-07-30T03:03:56;15.30;99.90
26803;DHT22;14378;51.796;5.808;2023-07-30T03:05:57;15.30;99.90
26803;DHT22;14378;51.796;5.808;2023-07-30T03:07:58;15.30;99.90
26803;DHT22;14378;51.796;5.808;2023-07-30T03:09:59;15.30;99.90
26803;DHT22;14378;51.796;5.808;2023-07-30T03:11:59;15.30;99.90
26803;DHT22;14378;51.796;5.808;2023-07-30T03:14:00;15.40;99.90
26803;DHT22;14378;51.796;5.808;2023-07-30T03:16:01;15.40;99.90
26803;DHT22;14378;51.796;5.808;2023-07-30T03:18:02;15.40;99.90
26803;DHT22;14378;51.796;5.808;2023-07-30T03:20:03;15.40;99.90
26803;DHT22;14378;51.796;5.808;2023-07-30T03:22:04;15.50;99.90
26803;DHT22;14378;51.796;5.808;2023-07-30T03:24:05;15.40;99.90
26803;DHT22;14378;51.796;5.808;2023-07-30T03:26:06;15.50;99.90
26803;DHT22;14378;51.796;5.808;2023-07-30T03:28:07;15.50;99.90
26803;DHT22;14378;51.796;5.808;2023-07-30T03:30:09;15.50;99.90
26803;DHT22;14378;51.796;5.808;2023-07-30T03:32:10;15.50;99.90
26803;DHT22;14378;51.796;5.808;2023-07-30T03:34:11;15.60;99.90
26803;DHT22;14378;51.796;5.808;2023-07-30T03:36:13;15.50;99.90
26803;DHT22;14378;51.796;5.808;2023-07-30T03:38:14;15.60;99.90
26803;DHT22;14378;51.796;5.808;2023-07-30T03:40:15;15.60;99.90
26803;DHT22;14378;51.796;5.808;2023-07-30T03:42:16;15.50;99.90
26803;DHT22;14378;51.796;5.808;2023-07-30T03:44:17;15.50;99.90
26803;DHT22;14378;51.796;5.808;2023-07-30T03:46:18;15.50;99.90
26803;DHT22;14378;51.796;5.808;2023-07-30T03:48:18;15.50;99.90
26803;DHT22;14378;51.796;5.808;2023-07-30T03:50:19;15.50;99.90
26803;DHT22;14378;51.796;5.808;2023-07-30T03:52:21;15.50;99.90
26803;DHT22;14378;51.796;5.808;2023-07-30T03:54:22;15.50;99.90
26803;DHT22;14378;51.796;5.808;2023-07-30T03:56:24;15.60;99.90
26803;DHT22;14378;51.796;5.808;2023-07-30T03:58:25;15.60;99.90
26803;DHT22;14378;51.796;5.808;2023-07-30T04:00:26;15.60;99.90
26803;DHT22;14378;51.796;5.808;2023-07-30T04:02:27;15.60;99.90
26803;DHT22;14378;51.796;5.808;2023-07-30T04:04:28;15.60;99.90
26803;DHT22;14378;51.796;5.808;2023-07-30T04:06:28;15.60;99.90
26803;DHT22;14378;51.796;5.808;2023-07-30T04:08:29;15.60;99.90
26803;DHT22;14378;51.796;5.808;2023-07-30T04:10:30;15.60;99.90
26803;DHT22;14378;51.796;5.808;2023-07-30T04:12:31;15.60;99.90
26803;DHT22;14378;51.796;5.808;2023-07-30T04:14:32;15.70;99.90
26803;DHT22;14378;51.796;5.808;2023-07-30T04:16:33;15.70;99.90
26803;DHT22;14378;51.796;5.808;2023-07-30T04:18:35;15.70;99.90
26803;DHT22;14378;51.796;5.808;2023-07-30T04:20:36;15.70;99.90
26803;DHT22;14378;51.796;5.808;2023-07-30T04:22:37;15.70;99.90
26803;DHT22;14378;51.796;5.808;2023-07-30T04:24:38;15.70;99.90
26803;DHT22;14378;51.796;5.808;2023-07-30T04:26:39;15.80;99.90
26803;DHT22;14378;51.796;5.808;2023-07-30T04:28:40;15.70;99.90
26803;DHT22;14378;51.796;5.808;2023-07-30T04:30:42;15.80;99.90
26803;DHT22;14378;51.796;5.808;2023-07-30T04:32:43;15.80;99.90
26803;DHT22;14378;51.796;5.808;2023-07-30T04:34:44;15.80;99.90
26803;DHT22;14378;51.796;5.808;2023-07-30T04:36:45;15.80;99.90
26803;DHT22;14378;51.796;5.808;2023-07-30T04:38:47;15.80;99.90
26803;DHT22;14378;51.796;5.808;2023-07-30T04:40:48;15.90;99.90
26803;DHT22;14378;51.796;5.808;2023-07-30T04:42:49;15.80;99.90
26803;DHT22;14378;51.796;5.808;2023-07-30T04:44:51;15.90;99.90
26803;DHT22;14378;51.796;5.808;2023-07-30T04:46:52;15.90;99.90
26803;DHT22;14378;51.796;5.808;2023-07-30T04:48:56;15.90;99.90
26803;DHT22;14378;51.796;5.808;2023-07-30T04:50:57;15.90;99.90
26803;DHT22;14378;51.796;5.808;2023-07-30T04:52:59;15.90;99.90
26803;DHT22;14378;51.796;5.808;2023-07-30T04:55:00;15.90;99.90
26803;DHT22;14378;51.796;5.808;2023-07-30T04:57:02;15.90;99.90
26803;DHT22;14378;51.796;5.808;2023-07-30T04:59:03;15.90;99.90
26803;DHT22;14378;51.796;5.808;2023-07-30T05:01:04;16.00;99.90
26803;DHT22;14378;51.796;5.808;2023-07-30T05:03:05;15.90;99.90
26803;DHT22;14378;51.796;5.808;2023-07-30T05:05:05;16.00;99.90
26803;DHT22;14378;51.796;5.808;2023-07-30T05:07:06;16.00;99.90
26803;DHT22;14378;51.796;5.808;2023-07-30T05:09:07;16.00;99.90
26803;DHT22;14378;51.796;5.808;2023-07-30T05:11:10;16.00;99.90
26803;DHT22;14378;51.796;5.808;2023-07-30T05:13:11;16.00;99.90
26803;DHT22;14378;51.796;5.808;2023-07-30T05:15:13;16.10;99.90
26803;DHT22;14378;51.796;5.808;2023-07-30T05:17:14;16.10;99.90
26803;DHT22;14378;51.796;5.808;2023-07-30T05:19:16;16.10;99.90
26803;DHT22;14378;51.796;5.808;2023-07-30T05:21:16;16.10;99.90
26803;DHT22;14378;51.796;5.808;2023-07-30T05:23:17;16.10;99.90
26803;DHT22;14378;51.796;5.808;2023-07-30T05:25:18;16.20;99.90
26803;DHT22;14378;51.796;5.808;2023-07-30T05:27:19;16.20;99.90
26803;DHT22;14378;51.796;5.808;2023-07-30T05:29:20;16.20;99.90
26803;DHT22;14378;51.796;5.808;2023-07-30T05:31:21;16.20;99.90
26803;DHT22;14378;51.796;5.808;2023-07-30T05:33:22;16.20;99.90
26803;DHT22;14378;51.796;5.808;2023-07-30T05:35:23;16.20;99.90
26803;DHT22;14378;51.796;5.808;2023-07-30T05:37:24;16.30;99.90
26803;DHT22;14378;51.796;5.808;2023-07-30T05:39:25;16.30;99.90
26803;DHT22;14378;51.796;5.808;2023-07-30T05:41:26;16.30;99.90
26803;DHT22;14378;51.796;5.808;2023-07-30T05:43:27;16.20;99.90
26803;DHT22;14378;51.796;5.808;2023-07-30T05:45:29;16.30;99.90
26803;DHT22;14378;51.796;5.808;2023-07-30T05:47:29;16.30;99.90
26803;DHT22;14378;51.796;5.808;2023-07-30T05:49:30;16.40;99.90
26803;DHT22;14378;51.796;5.808;2023-07-30T05:51:31;16.40;99.90
26803;DHT22;14378;51.796;5.808;2023-07-30T05:53:32;16.40;99.90
26803;DHT22;14378;51.796;5.808;2023-07-30T05:55:32;16.50;99.90
26803;DHT22;14378;51.796;5.808;2023-07-30T05:57:33;16.50;99.90
26803;DHT22;14378;51.796;5.808;2023-07-30T05:59:34;16.50;99.90
26803;DHT22;14378;51.796;5.808;2023-07-30T06:01:35;16.50;99.90
26803;DHT22;14378;51.796;5.808;2023-07-30T06:03:36;16.50;99.90
26803;DHT22;14378;51.796;5.808;2023-07-30T06:05:42;16.50;99.90
26803;DHT22;14378;51.796;5.808;2023-07-30T06:07:43;16.50;99.90
26803;DHT22;14378;51.796;5.808;2023-07-30T06:09:44;16.50;99.90
26803;DHT22;14378;51.796;5.808;2023-07-30T06:11:46;16.50;99.90
26803;DHT22;14378;51.796;5.808;2023-07-30T06:13:47;16.60;99.90
26803;DHT22;14378;51.796;5.808;2023-07-30T06:15:48;16.60;99.90
26803;DHT22;14378;51.796;5.808;2023-07-30T06:17:48;16.70;99.90
26803;DHT22;14378;51.796;5.808;2023-07-30T06:19:49;16.70;99.90
26803;DHT22;14378;51.796;5.808;2023-07-30T06:21:50;16.70;99.90
26803;DHT22;14378;51.796;5.808;2023-07-30T06:23:51;16.80;99.90
26803;DHT22;14378;51.796;5.808;2023-07-30T06:25:52;16.80;99.90
26803;DHT22;14378;51.796;5.808;2023-07-30T06:27:53;16.80;99.90
26803;DHT22;14378;51.796;5.808;2023-07-30T06:29:54;16.80;99.90
26803;DHT22;14378;51.796;5.808;2023-07-30T06:31:55;16.80;99.90
26803;DHT22;14378;51.796;5.808;2023-07-30T06:33:56;16.80;99.90
26803;DHT22;14378;51.796;5.808;2023-07-30T06:35:57;16.80;99.90
26803;DHT22;14378;51.796;5.808;2023-07-30T06:37:58;16.80;99.90
26803;DHT22;14378;51.796;5.808;2023-07-30T06:39:58;16.80;99.90
26803;DHT22;14378;51.796;5.808;2023-07-30T06:41:59;16.80;99.90
26803;DHT22;14378;51.796;5.808;2023-07-30T06:44:00;16.90;99.90
26803;DHT22;14378;51.796;5.808;2023-07-30T06:46:01;16.90;99.90
26803;DHT22;14378;51.796;5.808;2023-07-30T06:48:02;16.90;99.90
26803;DHT22;14378;51.796;5.808;2023-07-30T06:50:05;17.00;99.90
26803;DHT22;14378;51.796;5.808;2023-07-30T06:52:09;17.00;99.90
26803;DHT22;14378;51.796;5.808;2023-07-30T06:54:10;17.10;99.90
26803;DHT22;14378;51.796;5.808;2023-07-30T06:56:10;17.10;99.90
26803;DHT22;14378;51.796;5.808;2023-07-30T06:58:11;17.20;99.90
26803;DHT22;14378;51.796;5.808;2023-07-30T07:00:12;17.20;99.90
26803;DHT22;14378;51.796;5.808;2023-07-30T07:02:14;17.20;99.90
26803;DHT22;14378;51.796;5.808;2023-07-30T07:04:14;17.20;99.90
26803;DHT22;14378;51.796;5.808;2023-07-30T07:06:15;17.20;99.90
26803;DHT22;14378;51.796;5.808;2023-07-30T07:08:16;17.30;99.90
26803;DHT22;14378;51.796;5.808;2023-07-30T07:10:17;17.40;99.90
26803;DHT22;14378;51.796;5.808;2023-07-30T07:12:18;17.40;99.90
26803;DHT22;14378;51.796;5.808;2023-07-30T07:14:22;17.40;99.90
26803;DHT22;14378;51.796;5.808;2023-07-30T07:16:23;17.50;99.90
26803;DHT22;14378;51.796;5.808;2023-07-30T07:18:24;17.70;99.90
26803;DHT22;14378;51.796;5.808;2023-07-30T07:20:24;17.70;99.90
26803;DHT22;14378;51.796;5.808;2023-07-30T07:22:26;17.70;99.90
26803;DHT22;14378;51.796;5.808;2023-07-30T07:24:26;17.80;99.90
26803;DHT22;14378;51.796;5.808;2023-07-30T07:26:27;17.90;99.90
26803;DHT22;14378;51.796;5.808;2023-07-30T07:28:28;17.90;99.90
26803;DHT22;14378;51.796;5.808;2023-07-30T07:30:29;18.00;99.90
26803;DHT22;14378;51.796;5.808;2023-07-30T07:32:30;18.10;99.90
26803;DHT22;14378;51.796;5.808;2023-07-30T07:34:30;18.20;99.90
26803;DHT22;14378;51.796;5.808;2023-07-30T07:36:31;18.20;99.90
26803;DHT22;14378;51.796;5.808;2023-07-30T07:38:33;18.20;99.90
26803;DHT22;14378;51.796;5.808;2023-07-30T07:40:38;18.30;99.90
26803;DHT22;14378;51.796;5.808;2023-07-30T07:42:42;18.30;99.90
26803;DHT22;14378;51.796;5.808;2023-07-30T07:44:42;18.30;99.90
26803;DHT22;14378;51.796;5.808;2023-07-30T07:46:46;18.30;99.90
26803;DHT22;14378;51.796;5.808;2023-07-30T07:48:47;18.40;99.90
26803;DHT22;14378;51.796;5.808;2023-07-30T07:50:48;18.40;99.90
26803;DHT22;14378;51.796;5.808;2023-07-30T07:52:49;18.40;99.90
26803;DHT22;14378;51.796;5.808;2023-07-30T07:54:50;18.40;99.90
26803;DHT22;14378;51.796;5.808;2023-07-30T07:56:51;18.50;99.90
26803;DHT22;14378;51.796;5.808;2023-07-30T07:58:52;18.50;99.90
26803;DHT22;14378;51.796;5.808;2023-07-30T08:00:55;18.60;99.90
26803;DHT22;14378;51.796;5.808;2023-07-30T08:02:56;18.60;99.90
26803;DHT22;14378;51.796;5.808;2023-07-30T08:04:57;18.60;99.90
26803;DHT22;14378;51.796;5.808;2023-07-30T08:06:58;18.60;99.90
26803;DHT22;14378;51.796;5.808;2023-07-30T08:09:03;18.70;99.90
26803;DHT22;14378;51.796;5.808;2023-07-30T08:11:05;18.60;99.90
26803;DHT22;14378;51.796;5.808;2023-07-30T08:13:07;18.60;99.90
26803;DHT22;14378;51.796;5.808;2023-07-30T08:15:08;18.60;99.90
26803;DHT22;14378;51.796;5.808;2023-07-30T08:17:09;18.60;99.90
26803;DHT22;14378;51.796;5.808;2023-07-30T08:19:10;18.60;99.90
26803;DHT22;14378;51.796;5.808;2023-07-30T08:21:11;18.60;99.90
26803;DHT22;14378;51.796;5.808;2023-07-30T08:23:12;18.60;99.90
26803;DHT22;14378;51.796;5.808;2023-07-30T08:25:12;18.50;99.90
26803;DHT22;14378;51.796;5.808;2023-07-30T08:27:13;18.60;99.90
26803;DHT22;14378;51.796;5.808;2023-07-30T08:29:14;18.60;99.90
26803;DHT22;14378;51.796;5.808;2023-07-30T08:31:15;18.60;99.90
26803;DHT22;14378;51.796;5.808;2023-07-30T08:33:16;18.70;99.90
26803;DHT22;14378;51.796;5.808;2023-07-30T08:35:17;18.70;99.90
26803;DHT22;14378;51.796;5.808;2023-07-30T08:37:18;18.80;99.90
26803;DHT22;14378;51.796;5.808;2023-07-30T08:39:19;18.70;99.90
26803;DHT22;14378;51.796;5.808;2023-07-30T08:41:19;18.70;99.90
26803;DHT22;14378;51.796;5.808;2023-07-30T08:43:20;18.80;99.90
26803;DHT22;14378;51.796;5.808;2023-07-30T08:45:21;18.80;99.90
26803;DHT22;14378;51.796;5.808;2023-07-30T08:47:22;18.80;99.90
26803;DHT22;14378;51.796;5.808;2023-07-30T08:49:23;18.80;99.90
26803;DHT22;14378;51.796;5.808;2023-07-30T08:51:26;18.80;99.90
26803;DHT22;14378;51.796;5.808;2023-07-30T08:53:27;18.90;99.90
26803;DHT22;14378;51.796;5.808;2023-07-30T08:55:29;19.00;99.90
26803;DHT22;14378;51.796;5.808;2023-07-30T08:57:30;19.00;99.90
26803;DHT22;14378;51.796;5.808;2023-07-30T08:59:37;18.90;99.90
26803;DHT22;14378;51.796;5.808;2023-07-30T09:01:40;18.90;99.90
26803;DHT22;14378;51.796;5.808;2023-07-30T09:03:44;19.00;99.90
26803;DHT22;14378;51.796;5.808;2023-07-30T09:05:45;19.00;99.90
26803;DHT22;14378;51.796;5.808;2023-07-30T09:07:45;19.10;99.90
26803;DHT22;14378;51.796;5.808;2023-07-30T09:09:47;19.10;99.90
26803;DHT22;14378;51.796;5.808;2023-07-30T09:11:55;19.10;99.90
26803;DHT22;14378;51.796;5.808;2023-07-30T09:13:57;19.10;99.90
26803;DHT22;14378;51.796;5.808;2023-07-30T09:15:58;19.10;99.90
26803;DHT22;14378;51.796;5.808;2023-07-30T09:18:01;19.20;99.90
26803;DHT22;14378;51.796;5.808;2023-07-30T09:20:03;19.30;99.90
26803;DHT22;14378;51.796;5.808;2023-07-30T09:22:06;19.30;99.90
26803;DHT22;14378;51.796;5.808;2023-07-30T09:24:07;19.40;99.90
26803;DHT22;14378;51.796;5.808;2023-07-30T09:26:09;19.40;99.90
26803;DHT22;14378;51.796;5.808;2023-07-30T09:28:10;19.40;99.90
26803;DHT22;14378;51.796;5.808;2023-07-30T09:30:11;19.40;99.90
26803;DHT22;14378;51.796;5.808;2023-07-30T09:32:11;19.40;99.90
26803;DHT22;14378;51.796;5.808;2023-07-30T09:34:15;19.50;99.90
26803;DHT22;14378;51.796;5.808;2023-07-30T09:36:19;19.50;99.90
26803;DHT22;14378;51.796;5.808;2023-07-30T09:38:20;19.50;99.90
26803;DHT22;14378;51.796;5.808;2023-07-30T09:40:21;19.60;99.90
26803;DHT22;14378;51.796;5.808;2023-07-30T09:42:31;19.60;99.90
26803;DHT22;14378;51.796;5.808;2023-07-30T09:44:37;19.70;99.90
26803;DHT22;14378;51.796;5.808;2023-07-30T09:46:47;19.80;99.90
26803;DHT22;14378;51.796;5.808;2023-07-30T09:48:49;19.80;99.90
26803;DHT22;14378;51.796;5.808;2023-07-30T09:50:50;19.80;99.90
26803;DHT22;14378;51.796;5.808;2023-07-30T09:52:51;19.70;99.90
26803;DHT22;14378;51.796;5.808;2023-07-30T09:54:52;19.60;99.90
26803;DHT22;14378;51.796;5.808;2023-07-30T09:56:53;19.60;99.90
26803;DHT22;14378;51.796;5.808;2023-07-30T09:58:54;19.60;99.90
26803;DHT22;14378;51.796;5.808;2023-07-30T10:00:58;19.50;99.90
26803;DHT22;14378;51.796;5.808;2023-07-30T10:03:01;19.50;99.90
26803;DHT22;14378;51.796;5.808;2023-07-30T10:05:03;19.50;99.90
26803;DHT22;14378;51.796;5.808;2023-07-30T10:07:16;19.50;99.90
26803;DHT22;14378;51.796;5.808;2023-07-30T10:09:20;19.60;99.90
26803;DHT22;14378;51.796;5.808;2023-07-30T10:11:22;19.60;99.90
26803;DHT22;14378;51.796;5.808;2023-07-30T10:13:24;19.50;99.90
26803;DHT22;14378;51.796;5.808;2023-07-30T10:15:26;19.40;99.90
26803;DHT22;14378;51.796;5.808;2023-07-30T10:17:26;19.40;99.90
26803;DHT22;14378;51.796;5.808;2023-07-30T10:19:29;19.30;99.90
26803;DHT22;14378;51.796;5.808;2023-07-30T10:21:32;19.20;99.90
26803;DHT22;14378;51.796;5.808;2023-07-30T10:23:33;19.10;99.90
26803;DHT22;14378;51.796;5.808;2023-07-30T10:25:47;19.00;99.90
26803;DHT22;14378;51.796;5.808;2023-07-30T10:27:50;19.00;99.90
26803;DHT22;14378;51.796;5.808;2023-07-30T10:32:09;18.80;99.90
26803;DHT22;14378;51.796;5.808;2023-07-30T10:34:10;18.70;99.90
26803;DHT22;14378;51.796;5.808;2023-07-30T10:36:12;18.70;99.90
26803;DHT22;14378;51.796;5.808;2023-07-30T10:40:17;18.60;99.90
26803;DHT22;14378;51.796;5.808;2023-07-30T10:42:18;18.40;99.90
26803;DHT22;14378;51.796;5.808;2023-07-30T10:44:28;18.40;99.90
26803;DHT22;14378;51.796;5.808;2023-07-30T10:46:30;18.40;99.90
26803;DHT22;14378;51.796;5.808;2023-07-30T10:48:39;18.40;99.90
26803;DHT22;14378;51.796;5.808;2023-07-30T10:50:40;18.40;99.90
26803;DHT22;14378;51.796;5.808;2023-07-30T10:52:41;18.40;99.90
26803;DHT22;14378;51.796;5.808;2023-07-30T10:54:42;18.60;99.90
26803;DHT22;14378;51.796;5.808;2023-07-30T10:56:43;18.60;99.90
26803;DHT22;14378;51.796;5.808;2023-07-30T10:58:51;18.60;99.90
26803;DHT22;14378;51.796;5.808;2023-07-30T11:00:52;18.60;99.90
26803;DHT22;14378;51.796;5.808;2023-07-30T11:02:54;18.60;99.90
26803;DHT22;14378;51.796;5.808;2023-07-30T11:04:55;18.70;99.90
26803;DHT22;14378;51.796;5.808;2023-07-30T11:06:56;18.80;99.90
26803;DHT22;14378;51.796;5.808;2023-07-30T11:08:57;18.90;99.90
26803;DHT22;14378;51.796;5.808;2023-07-30T11:10:58;19.10;99.90
26803;DHT22;14378;51.796;5.808;2023-07-30T11:13:02;19.30;99.90
26803;DHT22;14378;51.796;5.808;2023-07-30T11:15:03;19.40;99.90
26803;DHT22;14378;51.796;5.808;2023-07-30T11:17:05;19.60;99.90
26803;DHT22;14378;51.796;5.808;2023-07-30T11:19:09;19.80;99.90
26803;DHT22;14378;51.796;5.808;2023-07-30T11:21:14;20.00;99.90
26803;DHT22;14378;51.796;5.808;2023-07-30T11:23:22;20.30;99.90
26803;DHT22;14378;51.796;5.808;2023-07-30T11:25:23;20.50;99.90
26803;DHT22;14378;51.796;5.808;2023-07-30T11:27:25;20.70;99.90
26803;DHT22;14378;51.796;5.808;2023-07-30T11:29:26;20.90;99.90
26803;DHT22;14378;51.796;5.808;2023-07-30T11:31:27;21.10;99.90
26803;DHT22;14378;51.796;5.808;2023-07-30T11:33:28;21.20;99.90
26803;DHT22;14378;51.796;5.808;2023-07-30T11:35:29;21.40;99.90
26803;DHT22;14378;51.796;5.808;2023-07-30T11:37:31;21.60;99.90
26803;DHT22;14378;51.796;5.808;2023-07-30T11:39:32;21.70;99.90
26803;DHT22;14378;51.796;5.808;2023-07-30T11:41:35;21.90;99.90
26803;DHT22;14378;51.796;5.808;2023-07-30T11:43:41;22.20;99.90
26803;DHT22;14378;51.796;5.808;2023-07-30T11:45:42;22.50;99.90
26803;DHT22;14378;51.796;5.808;2023-07-30T11:47:43;22.50;99.90
26803;DHT22;14378;51.796;5.808;2023-07-30T11:49:56;22.60;99.90
26803;DHT22;14378;51.796;5.808;2023-07-30T11:52:08;22.40;99.90
26803;DHT22;14378;51.796;5.808;2023-07-30T11:54:19;22.40;99.90
26803;DHT22;14378;51.796;5.808;2023-07-30T11:56:31;22.70;99.90
26803;DHT22;14378;51.796;5.808;2023-07-30T11:58:32;22.80;99.90
26803;DHT22;14378;51.796;5.808;2023-07-30T12:00:33;23.00;99.90
26803;DHT22;14378;51.796;5.808;2023-07-30T12:02:34;23.10;99.90
26803;DHT22;14378;51.796;5.808;2023-07-30T12:04:44;23.10;99.90
26803;DHT22;14378;51.796;5.808;2023-07-30T12:06:50;23.00;99.90
26803;DHT22;14378;51.796;5.808;2023-07-30T12:08:51;23.00;99.90
26803;DHT22;14378;51.796;5.808;2023-07-30T12:10:51;23.00;99.90
26803;DHT22;14378;51.796;5.808;2023-07-30T12:12:53;22.90;99.90
26803;DHT22;14378;51.796;5.808;2023-07-30T12:14:54;23.00;99.90
26803;DHT22;14378;51.796;5.808;2023-07-30T12:16:56;23.10;99.90
26803;DHT22;14378;51.796;5.808;2023-07-30T12:18:57;23.30;99.90
26803;DHT22;14378;51.796;5.808;2023-07-30T12:20:58;23.80;99.90
26803;DHT22;14378;51.796;5.808;2023-07-30T12:22:58;24.00;99.90
26803;DHT22;14378;51.796;5.808;2023-07-30T12:25:00;24.20;99.90
26803;DHT22;14378;51.796;5.808;2023-07-30T12:27:01;24.40;99.90
26803;DHT22;14378;51.796;5.808;2023-07-30T12:29:02;24.50;99.90
26803;DHT22;14378;51.796;5.808;2023-07-30T12:31:03;24.40;99.90
26803;DHT22;14378;51.796;5.808;2023-07-30T12:33:08;24.40;99.90
26803;DHT22;14378;51.796;5.808;2023-07-30T12:35:12;24.30;99.90
26803;DHT22;14378;51.796;5.808;2023-07-30T12:37:13;24.20;99.90
26803;DHT22;14378;51.796;5.808;2023-07-30T12:39:14;24.00;99.90
26803;DHT22;14378;51.796;5.808;2023-07-30T12:41:15;24.00;99.90
26803;DHT22;14378;51.796;5.808;2023-07-30T12:44:04;23.90;99.90
26803;DHT22;14378;51.796;5.808;2023-07-30T12:46:05;23.80;99.90
26803;DHT22;14378;51.796;5.808;2023-07-30T12:48:06;23.80;99.90
26803;DHT22;14378;51.796;5.808;2023-07-30T12:50:08;23.90;99.90
26803;DHT22;14378;51.796;5.808;2023-07-30T12:52:09;23.90;99.90
26803;DHT22;14378;51.796;5.808;2023-07-30T12:54:11;23.90;99.90